createdAt,value
2023-12-30T00:02:07.081Z,24.80
2023-12-30T00:05:15.028Z,24.90
2023-12-30T00:08:29.290Z,25.10
2023-12-30T00:11:42.092Z,25.10
2023-12-30T00:14:54.398Z,25.20
2023-12-30T00:18:08.309Z,25.30
2023-12-30T00:21:25.273Z,25.30
2023-12-30T00:24:35.065Z,25.30
2023-12-30T00:27:44.932Z,25.10
2023-12-30T00:30:56.180Z,25.10
2023-12-30T00:34:10.676Z,25.10
2023-12-30T00:37:23.721Z,25.00
2023-12-30T00:40:35.971Z,25.00
2023-12-30T00:43:45.917Z,25.00
2023-12-30T00:46:57.535Z,25.00
2023-12-30T00:50:11.262Z,24.90
2023-12-30T00:53:24.835Z,24.90
2023-12-30T00:56:41.782Z,24.90
2023-12-30T00:59:53.240Z,24.90
2023-12-30T01:03:05.954Z,24.90
2023-12-30T01:06:19.336Z,24.90
2023-12-30T01:09:30.677Z,25.10
2023-12-30T01:12:41.698Z,25.10
2023-12-30T01:15:56.375Z,25.10
2023-12-30T01:19:11.359Z,25.10
2023-12-30T01:22:24.088Z,25.00
2023-12-30T01:25:37.027Z,25.00
2023-12-30T01:28:47.340Z,25.00
2023-12-30T01:31:56.632Z,25.00
2023-12-30T01:35:08.327Z,24.90
2023-12-30T01:38:22.143Z,24.90
2023-12-30T01:41:36.120Z,24.90
2023-12-30T01:44:47.074Z,24.90
2023-12-30T01:48:00.017Z,24.90
2023-12-30T01:51:24.223Z,24.90
2023-12-30T01:54:23.640Z,24.90
2023-12-30T01:57:36.424Z,24.90
2023-12-30T02:00:48.636Z,24.90
2023-12-30T02:04:01.074Z,24.90
2023-12-30T02:07:11.335Z,24.90
2023-12-30T02:10:25.330Z,24.90
2023-12-30T02:13:39.060Z,24.90
2023-12-30T02:16:50.052Z,24.90
2023-12-30T02:19:58.339Z,25.00
2023-12-30T02:23:10.426Z,24.90
2023-12-30T02:26:26.009Z,24.90
2023-12-30T02:29:40.227Z,24.90
2023-12-30T02:32:51.924Z,24.90
2023-12-30T02:36:05.245Z,24.80
2023-12-30T02:39:17.256Z,24.80
2023-12-30T02:42:29.825Z,24.90
2023-12-30T02:45:40.500Z,24.80
2023-12-30T02:48:52.219Z,24.80
2023-12-30T02:52:06.705Z,24.80
2023-12-30T02:55:17.123Z,24.80
2023-12-30T02:58:28.970Z,24.80
2023-12-30T03:01:41.787Z,24.80
2023-12-30T03:04:51.199Z,24.80
2023-12-30T03:08:03.038Z,24.90
2023-12-30T03:11:14.039Z,24.90
2023-12-30T03:14:21.484Z,24.90
2023-12-30T03:17:31.832Z,24.90
2023-12-30T03:20:43.373Z,24.90
2023-12-30T03:23:52.905Z,24.80
2023-12-30T03:27:04.507Z,24.80
2023-12-30T03:30:18.399Z,24.80
2023-12-30T03:33:28.524Z,24.70
2023-12-30T03:36:40.049Z,24.80
2023-12-30T03:39:51.236Z,24.80
2023-12-30T03:43:05.873Z,24.80
2023-12-30T03:46:21.913Z,24.80
2023-12-30T03:49:31.982Z,24.80
2023-12-30T03:52:44.494Z,24.80
2023-12-30T03:55:54.753Z,24.70
2023-12-30T03:59:05.236Z,24.70
2023-12-30T04:02:17.767Z,24.70
2023-12-30T04:05:28.564Z,24.60
2023-12-30T04:08:37.221Z,24.60
2023-12-30T04:11:50.428Z,24.60
2023-12-30T04:14:59.519Z,24.50
2023-12-30T04:18:14.874Z,24.60
2023-12-30T04:21:26.360Z,24.70
2023-12-30T04:24:37.227Z,24.70
2023-12-30T04:27:50.931Z,24.70
2023-12-30T04:31:03.699Z,24.70
2023-12-30T04:34:12.279Z,24.60
2023-12-30T04:37:22.244Z,24.60
2023-12-30T04:40:35.744Z,24.60
2023-12-30T04:43:45.885Z,24.50
2023-12-30T04:46:55.674Z,24.50
2023-12-30T04:50:05.135Z,24.50
2023-12-30T04:53:16.094Z,24.50
2023-12-30T04:56:28.500Z,24.40
2023-12-30T04:59:38.689Z,24.40
2023-12-30T05:02:52.452Z,24.40
2023-12-30T05:06:05.027Z,24.40
2023-12-30T05:09:16.188Z,24.30
2023-12-30T05:12:27.203Z,24.30
2023-12-30T05:15:41.204Z,24.30
2023-12-30T05:18:52.642Z,24.30
2023-12-30T05:22:03.512Z,24.30
2023-12-30T05:25:14.363Z,24.20
2023-12-30T05:28:25.067Z,24.20
2023-12-30T05:31:37.838Z,24.20
2023-12-30T05:34:50.625Z,24.20
2023-12-30T05:38:03.573Z,24.20
2023-12-30T05:41:15.736Z,24.20
2023-12-30T05:44:30.397Z,24.10
2023-12-30T05:47:43.169Z,24.10
2023-12-30T05:50:53.234Z,24.10
2023-12-30T05:54:03.212Z,24.10
2023-12-30T05:57:16.729Z,24.10
2023-12-30T06:00:30.653Z,24.10
2023-12-30T06:03:41.640Z,24.10
2023-12-30T06:06:55.242Z,24.00
2023-12-30T06:10:07.459Z,24.00
2023-12-30T06:13:23.037Z,24.00
2023-12-30T06:16:33.350Z,24.00
2023-12-30T06:19:46.402Z,23.90
2023-12-30T06:22:57.663Z,24.00
2023-12-30T06:26:09.866Z,24.00
2023-12-30T06:29:22.989Z,24.00
2023-12-30T06:32:35.008Z,24.00
2023-12-30T06:35:47.982Z,23.90
2023-12-30T06:38:58.992Z,23.90
2023-12-30T06:42:12.866Z,23.90
2023-12-30T06:45:26.455Z,23.90
2023-12-30T06:48:40.222Z,23.90
2023-12-30T06:51:53.653Z,23.80
2023-12-30T06:55:18.516Z,23.80
2023-12-30T06:58:21.048Z,23.90
2023-12-30T07:01:31.378Z,23.80
2023-12-30T07:04:43.148Z,23.80
2023-12-30T07:07:54.350Z,23.80
2023-12-30T07:11:07.296Z,23.80
2023-12-30T07:14:20.232Z,23.80
2023-12-30T07:17:31.425Z,23.80
2023-12-30T07:20:44.673Z,23.80
2023-12-30T07:27:13.912Z,23.70
2023-12-30T07:30:26.306Z,23.70
2023-12-30T07:33:36.770Z,23.70
2023-12-30T07:36:50.994Z,23.60
2023-12-30T07:40:01.862Z,23.60
2023-12-30T07:43:16.202Z,23.60
2023-12-30T07:46:30.651Z,23.50
2023-12-30T07:49:42.939Z,23.50
2023-12-30T07:52:54.060Z,23.50
2023-12-30T07:56:06.192Z,23.50
2023-12-30T07:59:16.781Z,23.50
2023-12-30T08:02:26.676Z,23.50
2023-12-30T08:05:37.264Z,23.50
2023-12-30T08:08:49.259Z,23.50
2023-12-30T08:12:03.045Z,23.40
2023-12-30T08:15:18.806Z,23.40
2023-12-30T08:18:26.713Z,23.40
2023-12-30T08:21:39.012Z,23.40
2023-12-30T08:24:48.942Z,23.40
2023-12-30T08:28:00.859Z,23.40
2023-12-30T08:31:12.017Z,23.40
2023-12-30T08:34:28.229Z,23.40
2023-12-30T08:37:40.128Z,23.30
2023-12-30T08:40:50.839Z,23.30
2023-12-30T08:44:01.028Z,23.30
2023-12-30T08:47:11.845Z,23.40
2023-12-30T08:50:23.109Z,23.50
2023-12-30T08:53:35.285Z,23.70
2023-12-30T08:56:45.171Z,23.80
2023-12-30T08:59:53.271Z,23.90
2023-12-30T09:03:06.213Z,24.00
2023-12-30T09:06:18.024Z,24.10
2023-12-30T09:12:46.376Z,24.00
2023-12-30T09:15:59.001Z,23.90
2023-12-30T09:19:11.609Z,23.80
2023-12-30T09:22:24.937Z,23.80
2023-12-30T09:25:34.774Z,23.80
2023-12-30T09:28:46.995Z,23.80
2023-12-30T09:31:58.818Z,23.70
2023-12-30T09:35:09.279Z,23.60
2023-12-30T09:38:21.943Z,23.60
2023-12-30T09:41:36.398Z,23.60
2023-12-30T09:44:49.189Z,23.50
2023-12-30T09:48:00.322Z,23.50
2023-12-30T09:51:13.229Z,23.50
2023-12-30T09:54:38.230Z,23.40
2023-12-30T09:57:40.437Z,23.40
2023-12-30T10:00:54.716Z,23.40
2023-12-30T10:04:07.415Z,23.40
2023-12-30T10:07:22.177Z,23.40
2023-12-30T10:10:48.115Z,23.30
2023-12-30T10:13:56.811Z,23.30
2023-12-30T10:17:10.452Z,23.30
2023-12-30T10:20:26.145Z,23.30
2023-12-30T10:23:41.709Z,23.30
2023-12-30T10:26:54.409Z,23.20
2023-12-30T10:30:04.760Z,23.30
2023-12-30T10:33:17.607Z,23.40
2023-12-30T10:36:28.583Z,23.60
2023-12-30T10:39:42.910Z,23.70
2023-12-30T10:42:54.484Z,23.80
2023-12-30T10:46:08.292Z,23.80
2023-12-30T10:49:20.751Z,23.90
2023-12-30T10:52:33.176Z,24.00
2023-12-30T10:55:48.202Z,24.00
2023-12-30T10:59:00.030Z,24.00
2023-12-30T11:02:11.768Z,23.90
2023-12-30T11:05:30.081Z,23.80
2023-12-30T11:08:44.365Z,23.80
2023-12-30T11:12:01.187Z,23.70
2023-12-30T11:15:13.686Z,23.70
2023-12-30T11:18:30.829Z,23.70
2023-12-30T11:21:50.061Z,23.60
2023-12-30T11:24:59.514Z,23.60
2023-12-30T11:28:23.858Z,23.60
2023-12-30T11:31:45.138Z,23.70
2023-12-30T11:34:57.767Z,23.80
2023-12-30T11:38:10.690Z,23.90
2023-12-30T11:41:20.780Z,24.00
2023-12-30T11:44:30.140Z,24.10
2023-12-30T11:47:40.402Z,24.10
2023-12-30T11:50:50.441Z,24.20
2023-12-30T11:54:03.269Z,24.30
2023-12-30T11:57:16.211Z,24.40
2023-12-30T12:00:28.104Z,24.40
2023-12-30T12:03:42.620Z,24.50
2023-12-30T12:06:54.690Z,24.50
2023-12-30T12:10:10.813Z,24.60
2023-12-30T12:13:29.252Z,24.70
2023-12-30T12:16:44.052Z,24.80
2023-12-30T12:19:57.865Z,24.90
2023-12-30T12:23:14.051Z,25.00
2023-12-30T12:26:26.725Z,25.00
2023-12-30T12:29:37.000Z,25.00
2023-12-30T12:32:49.516Z,25.00
2023-12-30T12:36:03.955Z,24.90
2023-12-30T12:39:15.145Z,24.80
2023-12-30T12:42:31.092Z,24.70
2023-12-30T12:45:44.616Z,24.50
2023-12-30T12:48:55.274Z,24.50
2023-12-30T12:52:10.228Z,24.40
2023-12-30T12:58:41.824Z,24.30
2023-12-30T13:01:52.203Z,24.20
2023-12-30T13:05:07.858Z,24.20
2023-12-30T13:08:21.133Z,24.20
2023-12-30T13:11:50.191Z,24.30
2023-12-30T13:15:02.717Z,24.30
2023-12-30T13:18:17.606Z,24.30
2023-12-30T13:21:28.558Z,24.20
2023-12-30T13:24:40.814Z,24.20
2023-12-30T13:27:54.560Z,24.20
2023-12-30T13:31:08.134Z,24.20
2023-12-30T13:34:19.695Z,24.30
2023-12-30T13:37:30.490Z,24.40
2023-12-30T13:40:42.950Z,24.50
2023-12-30T13:43:56.345Z,24.60
2023-12-30T13:47:20.867Z,24.70
2023-12-30T13:50:35.466Z,24.70
2023-12-30T13:53:45.513Z,24.80
2023-12-30T13:57:01.063Z,24.90
2023-12-30T14:03:40.542Z,25.00
2023-12-30T14:06:51.634Z,25.00
2023-12-30T14:10:08.524Z,25.10
2023-12-30T14:13:24.868Z,25.10
2023-12-30T14:16:35.369Z,25.00
2023-12-30T14:19:46.928Z,25.00
2023-12-30T14:23:00.369Z,25.00
2023-12-30T14:26:15.355Z,24.90
2023-12-30T14:29:30.332Z,24.80
2023-12-30T14:32:43.136Z,24.70
2023-12-30T14:35:52.916Z,24.70
2023-12-30T14:39:04.553Z,24.70
2023-12-30T14:42:18.574Z,24.70
2023-12-30T14:45:34.625Z,24.60
2023-12-30T14:48:46.792Z,24.70
2023-12-30T14:51:56.440Z,24.70
2023-12-30T14:55:12.698Z,24.60
2023-12-30T14:58:25.865Z,24.60
2023-12-30T15:01:40.870Z,24.70
2023-12-30T15:04:51.292Z,24.70
2023-12-30T15:08:04.463Z,24.70
2023-12-30T15:11:17.098Z,24.70
2023-12-30T15:14:29.622Z,24.80
2023-12-30T15:17:42.455Z,24.80
2023-12-30T15:20:54.180Z,24.90
2023-12-30T15:24:06.782Z,24.90
2023-12-30T15:27:20.095Z,24.80
2023-12-30T15:30:32.350Z,24.80
2023-12-30T15:33:42.169Z,24.80
2023-12-30T15:36:53.104Z,24.70
2023-12-30T15:40:08.233Z,24.70
2023-12-30T15:43:20.960Z,24.70
2023-12-30T15:46:34.075Z,24.70
2023-12-30T15:49:43.304Z,24.70
2023-12-30T15:52:56.393Z,24.70
2023-12-30T15:56:05.693Z,24.70
2023-12-30T15:59:16.050Z,24.60
2023-12-30T16:02:28.433Z,24.70
2023-12-30T16:05:39.540Z,24.70
2023-12-30T16:08:50.290Z,24.60
2023-12-30T16:12:03.907Z,24.70
2023-12-30T16:15:20.897Z,24.60
2023-12-30T16:18:32.345Z,24.60
2023-12-30T16:25:34.553Z,24.50
2023-12-30T16:28:49.825Z,24.50
2023-12-30T16:32:04.244Z,24.50
2023-12-30T16:37:55.557Z,24.40
2023-12-30T16:41:09.070Z,24.50
2023-12-30T16:44:21.216Z,24.60
2023-12-30T16:47:33.066Z,24.70
2023-12-30T16:50:44.628Z,24.70
2023-12-30T16:53:56.519Z,24.80
2023-12-30T16:57:07.004Z,25.00
2023-12-30T17:00:25.316Z,25.10
2023-12-30T17:03:34.396Z,25.10
2023-12-30T17:06:45.259Z,25.20
2023-12-30T17:09:54.568Z,25.30
2023-12-30T17:13:03.057Z,25.30
2023-12-30T17:16:15.731Z,25.30
2023-12-30T17:19:26.301Z,25.30
2023-12-30T17:22:37.481Z,25.20
2023-12-30T17:25:50.360Z,25.10
2023-12-30T17:29:04.578Z,25.00
2023-12-30T17:32:21.365Z,24.90
2023-12-30T17:35:33.996Z,24.80
2023-12-30T17:38:46.565Z,24.70
2023-12-30T17:41:56.222Z,24.70
2023-12-30T17:45:09.863Z,24.70
2023-12-30T17:48:20.659Z,24.60
2023-12-30T17:51:32.508Z,24.60
2023-12-30T17:54:47.291Z,24.50
2023-12-30T17:57:56.696Z,24.50
2023-12-30T18:01:11.282Z,24.40
2023-12-30T18:04:25.371Z,24.40
2023-12-30T18:07:37.871Z,24.40
2023-12-30T18:10:45.907Z,24.40
2023-12-30T18:13:59.301Z,24.40
2023-12-30T18:17:09.006Z,24.40
2023-12-30T18:20:20.365Z,24.60
2023-12-30T18:23:29.950Z,24.70
2023-12-30T18:26:43.217Z,24.90
2023-12-30T18:29:54.954Z,25.00
2023-12-30T18:33:07.408Z,25.10
2023-12-30T18:36:17.567Z,25.10
2023-12-30T18:39:28.658Z,25.30
2023-12-30T18:42:40.655Z,25.30
2023-12-30T18:45:54.556Z,25.20
2023-12-30T18:49:06.650Z,25.20
2023-12-30T18:52:17.830Z,25.10
2023-12-30T18:55:30.098Z,24.90
2023-12-30T18:58:40.536Z,24.90
2023-12-30T19:01:52.761Z,24.70
2023-12-30T19:05:03.797Z,24.70
2023-12-30T19:08:15.984Z,24.80
2023-12-30T19:11:29.744Z,24.80
2023-12-30T19:14:41.077Z,24.70
2023-12-30T19:17:52.308Z,24.70
2023-12-30T19:21:05.115Z,24.70
2023-12-30T19:24:16.879Z,24.50
2023-12-30T19:27:27.324Z,24.50
2023-12-30T19:30:38.701Z,24.50
2023-12-30T19:33:52.024Z,24.40
2023-12-30T19:37:04.798Z,24.40
2023-12-30T19:40:21.139Z,24.40
2023-12-30T19:43:30.762Z,24.40
2023-12-30T19:46:42.844Z,24.30
2023-12-30T19:49:53.291Z,24.30
2023-12-30T19:53:02.125Z,24.40
2023-12-30T19:56:22.052Z,24.40
2023-12-30T19:59:33.117Z,24.50
2023-12-30T20:02:47.009Z,24.60
2023-12-30T20:05:56.985Z,24.70
2023-12-30T20:09:07.452Z,24.90
2023-12-30T20:12:21.683Z,24.90
2023-12-30T20:15:36.129Z,25.00
2023-12-30T20:18:47.313Z,25.10
2023-12-30T20:21:59.222Z,25.20
2023-12-30T20:25:13.191Z,25.20
2023-12-30T20:28:26.234Z,25.20
2023-12-30T20:31:34.807Z,25.10
2023-12-30T20:34:50.550Z,25.10
2023-12-30T20:38:01.147Z,24.90
2023-12-30T20:41:10.978Z,24.80
2023-12-30T20:44:25.432Z,24.70
2023-12-30T20:47:35.923Z,24.70
2023-12-30T20:50:49.929Z,24.70
2023-12-30T20:53:59.794Z,24.60
2023-12-30T20:57:15.656Z,24.60
2023-12-30T21:00:27.769Z,24.50
2023-12-30T21:03:40.998Z,24.50
2023-12-30T21:06:47.866Z,24.50
2023-12-30T21:09:57.911Z,24.50
2023-12-30T21:13:10.481Z,24.50
2023-12-30T21:16:23.126Z,24.50
2023-12-30T21:19:37.626Z,24.40
2023-12-30T21:22:50.021Z,24.40
2023-12-30T21:26:01.632Z,24.40
2023-12-30T21:29:16.358Z,24.40
2023-12-30T21:32:29.807Z,24.30
2023-12-30T21:35:43.799Z,24.30
2023-12-30T21:38:55.500Z,24.30
2023-12-30T21:42:05.301Z,24.20
2023-12-30T21:45:19.296Z,24.20
2023-12-30T21:48:32.540Z,24.20
2023-12-30T21:51:48.006Z,24.20
2023-12-30T21:54:58.724Z,24.20
2023-12-30T21:58:09.998Z,24.10
2023-12-30T22:01:19.312Z,24.10
2023-12-30T22:04:30.702Z,24.10
2023-12-30T22:07:39.878Z,24.10
2023-12-30T22:10:51.487Z,24.20
2023-12-30T22:14:03.041Z,24.30
2023-12-30T22:17:13.776Z,24.50
2023-12-30T22:20:26.612Z,24.60
2023-12-30T22:23:40.854Z,24.70
2023-12-30T22:26:53.235Z,24.70
2023-12-30T22:30:05.411Z,24.70
2023-12-30T22:33:14.944Z,24.50
2023-12-30T22:36:35.695Z,24.40
2023-12-30T22:39:48.355Z,24.40
2023-12-30T22:42:59.519Z,24.30
2023-12-30T22:46:11.058Z,24.30
2023-12-30T22:49:20.359Z,24.30
2023-12-30T22:52:32.932Z,24.20
2023-12-30T22:55:44.765Z,24.20
2023-12-30T22:58:58.435Z,24.20
2023-12-30T23:02:10.387Z,24.10
2023-12-30T23:05:23.580Z,24.10
2023-12-30T23:08:32.536Z,24.10
2023-12-30T23:11:44.098Z,24.10
2023-12-30T23:14:52.911Z,24.10
2023-12-30T23:18:03.859Z,24.00
2023-12-30T23:21:19.995Z,24.00
2023-12-30T23:24:31.421Z,23.90
2023-12-30T23:27:41.721Z,23.90
2023-12-30T23:30:53.238Z,23.90
2023-12-30T23:34:06.334Z,23.90
2023-12-30T23:37:18.850Z,23.80
2023-12-30T23:40:29.090Z,23.80
2023-12-30T23:43:39.367Z,23.80
2023-12-30T23:46:49.608Z,23.80
2023-12-30T23:50:01.071Z,23.80
2023-12-30T23:53:13.504Z,23.80
2023-12-30T23:56:25.835Z,23.80
2023-12-30T23:59:38.529Z,23.80
